Presto, PA (15142)

7:58 PM EDT on August 31, 2015 (GMT -0400)
KPASCOTT2 | | Change Station
CLOSE
Current Station
Personal Weather Station
Location: Scott Township, PA
Elevation: 826 ft
Nearby Weather Stations

Elev 826 ft 40.40 °N, 80.10 °W | Updated 3 seconds ago

Clear
Clear
82.0 °F
Feels Like 81 °F
N
0.0
Wind Variable Wind from SSE
Gusts 0.0 mph

Today
High -- | Low -- °F
--% Chance of Precip.
Yesterday
High -- | Low -- °F
Precip. -- in
6:46 AM 7:54 PM
Waning Gibbous, 93% visible
Pressure 30.06 in
Visibility 10.0 miles
Clouds Few 4500 ft
Few 25000 ft
Heat Index 81 °F
Dew Point 51 °F
Humidity 34%
Rainfall 0.00 in
Snow Depth Not available.
UV 0 out of 12
Pollen 10.50 out of 12
Air Quality Not available.
Flu Activity Not available.
METAR KPIT 312351Z 27003KT 10SM FEW045 FEW250 28/18 A3006 RMK AO2 SLP177 T02780178 10311 20278 53001
Pressure 30.06 in
Visibility 10.0 miles
Clouds Few 4500 ft
Few 25000 ft
Heat Index 81 °F
Dew Point 51 °F
Humidity 34%
Rainfall 0.00 in
Snow Depth Not available.
UV 0 out of 12
Pollen 10.50 out of 12
Air Quality Not available.
Flu Activity Not available.
METAR KPIT 312351Z 27003KT 10SM FEW045 FEW250 28/18 A3006 RMK AO2 SLP177 T02780178 10311 20278 53001

10-Day Weather Forecast

×

Almanac

Astronomy

Aug. 31, 2015 Rise Set
Actual Time
Civil Twilight
Nautical Twilight
Astronomical Twilight
Moon
Length of Visible Light
Length of Day
Tomorrow will be .
, % of the Moon is Illuminated

Today's Extremes

State Highs State Lows

Community

WunderPhotos

Upload Photos

1,851,395 photos uploaded!

WunderBlogs® & News

Nearby

Air Quality

  Air Quality AQ Index Pollutant
Not available.

Snow Depth

Station Depth Elevation

Earthquake Activity

City Distance Mag. Time & Date
Minimum magnitude displayed is 2.5.

Coastal Water Temperatures

Place Temperature

Stations

Nearby Weather Stations

Station Location Temp. Windchill Dew Point Humidity Wind Precip. Elev Updated Type